createdAt,value
2022-11-24T00:01:46.218Z,99136.97
2022-11-24T00:04:36.173Z,99141.94
2022-11-24T00:07:24.787Z,99139.31
2022-11-24T00:10:13.207Z,99141.63
2022-11-24T00:13:01.649Z,99141.38
2022-11-24T00:15:50.082Z,99138.63
2022-11-24T00:18:39.095Z,99131.84
2022-11-24T00:21:29.691Z,99148.38
2022-11-24T00:24:18.297Z,99149.22
2022-11-24T00:27:06.815Z,99142.09
2022-11-24T00:29:55.244Z,99144.50
2022-11-24T00:32:43.651Z,99141.84
2022-11-24T00:35:32.101Z,99149.56
2022-11-24T00:38:21.903Z,99148.72
2022-11-24T00:41:10.341Z,99159.94
2022-11-24T00:43:58.899Z,99158.25
2022-11-24T00:46:47.498Z,99155.88
2022-11-24T00:49:36.292Z,99167.09
2022-11-24T00:52:24.696Z,99168.25
2022-11-24T00:55:14.587Z,99177.13
2022-11-24T00:58:03.142Z,99181.69
2022-11-24T01:00:51.753Z,99180.16
2022-11-24T01:03:40.183Z,99186.50
2022-11-24T01:06:28.906Z,99192.88
2022-11-24T01:09:17.511Z,99198.09
2022-11-24T01:12:08.895Z,99204.88
2022-11-24T01:14:57.249Z,99208.22
2022-11-24T01:17:45.640Z,99216.72
2022-11-24T01:20:34.052Z,99216.72
2022-11-24T01:23:22.669Z,99214.06
2022-11-24T01:26:12.733Z,99222.63
2022-11-24T01:29:02.468Z,99221.78
2022-11-24T01:31:50.921Z,99221.72
2022-11-24T01:34:39.313Z,99224.28
2022-11-24T01:37:27.867Z,99220.78
2022-11-24T01:40:16.876Z,99231.03
2022-11-24T01:43:17.499Z,99231.16
2022-11-24T01:46:11.986Z,99229.44
2022-11-24T01:49:05.554Z,99240.56
2022-11-24T01:51:56.602Z,99237.31
2022-11-24T01:54:47.153Z,99239.88
2022-11-24T01:57:37.472Z,99253.69
2022-11-24T02:00:25.882Z,99254.44
2022-11-24T02:03:18.752Z,99251.88
2022-11-24T02:06:09.744Z,99256.09
2022-11-24T02:09:00.032Z,99254.34
2022-11-24T02:11:48.434Z,99257.69
2022-11-24T02:14:37.011Z,99253.38
2022-11-24T02:17:25.371Z,99251.63
2022-11-24T02:20:15.366Z,99244.72
2022-11-24T02:23:07.302Z,99236.84
2022-11-24T02:26:01.610Z,99246.25
2022-11-24T02:28:51.433Z,99246.09
2022-11-24T02:31:39.997Z,99252.00
2022-11-24T02:34:28.570Z,99256.16
2022-11-24T02:37:16.992Z,99258.72
2022-11-24T02:40:06.504Z,99256.09
2022-11-24T02:42:56.082Z,99255.16
2022-11-24T02:45:45.858Z,99251.84
2022-11-24T02:48:34.343Z,99253.66
2022-11-24T02:51:23.033Z,99253.81
2022-11-24T02:54:11.408Z,99246.19
2022-11-24T02:56:59.934Z,99245.50
2022-11-24T02:59:48.300Z,99247.31
2022-11-24T03:02:38.118Z,99243.97
2022-11-24T03:05:27.219Z,99249.13
2022-11-24T03:08:15.593Z,99246.63
2022-11-24T03:11:04.084Z,99263.06
2022-11-24T03:13:52.459Z,99260.59
2022-11-24T03:16:40.845Z,99267.47
2022-11-24T03:19:30.555Z,99261.66
2022-11-24T03:22:19.131Z,99263.41
2022-11-24T03:25:08.167Z,99267.69
2022-11-24T03:27:57.606Z,99272.00
2022-11-24T03:30:46.065Z,99270.38
2022-11-24T03:33:34.531Z,99269.50
2022-11-24T03:36:24.239Z,99279.00
2022-11-24T03:39:12.614Z,99266.09
2022-11-24T03:42:02.653Z,99269.50
2022-11-24T03:44:51.010Z,99256.56
2022-11-24T03:47:39.832Z,99261.56
2022-11-24T03:50:28.194Z,99260.59
2022-11-24T03:53:17.972Z,99263.94
2022-11-24T03:56:06.787Z,99271.56
2022-11-24T03:58:55.192Z,99270.66
2022-11-24T04:01:43.616Z,99270.56
2022-11-24T04:04:32.331Z,99267.03
2022-11-24T04:07:21.263Z,99265.19
2022-11-24T04:10:11.282Z,99268.50
2022-11-24T04:12:58.667Z,99274.41
2022-11-24T04:15:47.105Z,99274.28
2022-11-24T04:18:35.506Z,99277.63
2022-11-24T04:21:23.899Z,99279.28
2022-11-24T04:24:12.403Z,99274.94
2022-11-24T04:27:02.133Z,99286.69
2022-11-24T04:29:50.916Z,99289.16
2022-11-24T04:32:39.278Z,99301.16
2022-11-24T04:35:27.717Z,99297.59
2022-11-24T04:39:25.775Z,99295.00
2022-11-24T04:41:24.497Z,99292.19
2022-11-24T04:44:14.298Z,99305.84
2022-11-24T04:47:02.688Z,99299.88
2022-11-24T04:49:51.525Z,99311.69
2022-11-24T04:52:39.936Z,99309.88
2022-11-24T04:55:28.348Z,99315.84
2022-11-24T04:58:16.779Z,99313.34
2022-11-24T05:01:09.389Z,99321.81
2022-11-24T05:03:58.477Z,99332.81
2022-11-24T05:06:46.857Z,99342.97
2022-11-24T05:09:59.336Z,99339.41
2022-11-24T05:12:56.018Z,99344.72
2022-11-24T05:15:44.432Z,99346.38
2022-11-24T05:18:34.234Z,99349.63
2022-11-24T05:21:22.676Z,99345.25
2022-11-24T05:24:11.779Z,99339.25
2022-11-24T05:27:00.144Z,99341.72
2022-11-24T05:29:48.591Z,99344.28
2022-11-24T05:32:36.981Z,99353.66
2022-11-24T05:35:26.712Z,99355.41
2022-11-24T05:38:15.386Z,99363.91
2022-11-24T05:41:04.437Z,99360.56
2022-11-24T05:43:52.852Z,99365.66
2022-11-24T05:46:41.241Z,99376.03
2022-11-24T05:49:29.642Z,99376.88
2022-11-24T05:52:19.387Z,99371.72
2022-11-24T05:55:09.100Z,99375.03
2022-11-24T05:58:00.382Z,99376.88
2022-11-24T06:00:48.749Z,99381.13
2022-11-24T06:03:37.143Z,99371.72
2022-11-24T06:06:25.540Z,99374.91
2022-11-24T06:09:15.321Z,99373.97
2022-11-24T06:12:03.768Z,99381.59
2022-11-24T06:14:52.210Z,99382.53
2022-11-24T06:17:40.827Z,99379.22
2022-11-24T06:20:32.694Z,99379.31
2022-11-24T06:23:21.664Z,99379.38
2022-11-24T06:26:11.419Z,99368.38
2022-11-24T06:28:59.803Z,99386.41
2022-11-24T06:31:48.304Z,99391.44
2022-11-24T06:34:37.081Z,99388.88
2022-11-24T06:37:25.597Z,99407.66
2022-11-24T06:40:14.285Z,99412.13
2022-11-24T06:43:04.018Z,99421.75
2022-11-24T06:45:52.921Z,99421.88
2022-11-24T06:48:41.376Z,99422.19
2022-11-24T06:51:29.889Z,99425.09
2022-11-24T06:54:20.978Z,99429.63
2022-11-24T06:57:09.455Z,99432.50
2022-11-24T06:59:59.365Z,99432.81
2022-11-24T07:02:47.742Z,99432.09
2022-11-24T07:05:15.955Z,99433.84
2022-11-24T07:07:44.414Z,99440.00
2022-11-24T07:10:12.595Z,99447.78
2022-11-24T07:12:40.657Z,99443.56
2022-11-24T07:15:11.248Z,99453.09
2022-11-24T07:17:39.464Z,99457.50
2022-11-24T07:20:08.932Z,99460.06
2022-11-24T07:22:37.074Z,99455.75
2022-11-24T07:25:07.426Z,99459.16
2022-11-24T07:27:35.572Z,99464.28
2022-11-24T07:30:04.395Z,99455.97
2022-11-24T07:32:33.970Z,99465.97
2022-11-24T07:35:02.046Z,99472.03
2022-11-24T07:37:31.738Z,99473.72
2022-11-24T07:40:00.153Z,99476.34
2022-11-24T07:42:28.650Z,99479.91
2022-11-24T07:44:56.754Z,99495.38
2022-11-24T07:47:24.834Z,99489.44
2022-11-24T07:49:54.502Z,99489.44
2022-11-24T07:52:23.391Z,99494.59
2022-11-24T07:54:51.503Z,99498.88
2022-11-24T07:57:19.682Z,99509.91
2022-11-24T07:59:47.808Z,99502.13
2022-11-24T08:02:15.878Z,99506.44
2022-11-24T08:04:43.977Z,99507.25
2022-11-24T08:07:13.534Z,99522.66
2022-11-24T08:09:41.687Z,99521.84
2022-11-24T08:12:09.845Z,99528.69
2022-11-24T08:14:37.961Z,99529.63
2022-11-24T08:17:06.080Z,99532.19
2022-11-24T08:19:34.783Z,99527.00
2022-11-24T08:22:02.844Z,99531.97
2022-11-24T08:24:32.521Z,99525.09
2022-11-24T08:27:00.842Z,99531.91
2022-11-24T08:29:29.694Z,99537.91
2022-11-24T08:31:58.226Z,99530.94
2022-11-24T08:34:27.754Z,99536.75
2022-11-24T08:36:55.819Z,99540.75
2022-11-24T08:39:24.048Z,99542.88
2022-11-24T08:41:53.602Z,99548.59
2022-11-24T08:44:21.690Z,99546.63
2022-11-24T08:46:49.939Z,99554.13
2022-11-24T08:49:18.883Z,99545.41
2022-11-24T08:51:48.511Z,99560.00
2022-11-24T08:54:18.611Z,99561.22
2022-11-24T08:56:46.880Z,99567.75
2022-11-24T08:59:16.611Z,99577.22
2022-11-24T09:01:44.788Z,99576.63
2022-11-24T09:04:13.021Z,99581.19
2022-11-24T09:06:41.162Z,99580.41
2022-11-24T09:09:10.670Z,99581.19
2022-11-24T09:11:38.806Z,99579.75
2022-11-24T09:14:07.410Z,99590.00
2022-11-24T09:16:37.195Z,99589.75
2022-11-24T09:19:07.935Z,99578.41
2022-11-24T09:21:37.819Z,99572.34
2022-11-24T09:24:07.256Z,99563.53
2022-11-24T09:26:37.001Z,99556.94
2022-11-24T09:29:06.346Z,99563.84
2022-11-24T09:31:36.928Z,99563.75
2022-11-24T09:34:05.901Z,99573.25
2022-11-24T09:36:34.178Z,99582.69
2022-11-24T09:39:02.309Z,99588.84
2022-11-24T09:42:03.317Z,99600.16
2022-11-24T09:45:12.578Z,99612.06
2022-11-24T09:47:57.195Z,99617.16
2022-11-24T09:50:26.756Z,99607.94
2022-11-24T09:53:01.102Z,99612.94
2022-11-24T09:55:43.777Z,99618.19
2022-11-24T09:58:39.907Z,99624.38
2022-11-24T10:01:13.645Z,99622.28
2022-11-24T10:03:44.482Z,99621.28
2022-11-24T10:06:22.294Z,99633.22
2022-11-24T10:09:27.807Z,99633.38
2022-11-24T10:12:01.598Z,99642.03
2022-11-24T10:15:21.664Z,99634.03
2022-11-24T10:18:14.933Z,99655.69
2022-11-24T10:20:53.726Z,99638.25
2022-11-24T10:23:39.806Z,99632.88
2022-11-24T10:26:17.490Z,99625.00
2022-11-24T10:28:50.055Z,99620.16
2022-11-24T10:31:24.339Z,99613.31
2022-11-24T10:33:52.596Z,99607.03
2022-11-24T10:36:26.537Z,99625.63
2022-11-24T10:38:59.800Z,99621.84
2022-11-24T10:41:37.898Z,99623.03
2022-11-24T10:44:06.225Z,99624.91
2022-11-24T10:46:39.185Z,99620.06
2022-11-24T10:49:07.687Z,99617.22
2022-11-24T10:51:48.607Z,99620.13
2022-11-24T10:54:18.692Z,99631.91
2022-11-24T10:56:47.946Z,99624.03
2022-11-24T10:59:30.542Z,99619.13
2022-11-24T11:01:58.819Z,99628.88
2022-11-24T11:04:28.673Z,99639.69
2022-11-24T11:07:18.495Z,99642.06
2022-11-24T11:09:46.947Z,99638.13
2022-11-24T11:12:42.909Z,99648.47
2022-11-24T11:15:27.983Z,99636.91
2022-11-24T11:17:59.167Z,99652.97
2022-11-24T11:20:30.922Z,99651.81
2022-11-24T11:23:02.136Z,99654.16
2022-11-24T11:25:33.409Z,99640.91
2022-11-24T11:28:27.782Z,99639.22
2022-11-24T11:31:19.073Z,99650.47
2022-11-24T11:34:03.593Z,99659.03
2022-11-24T11:36:33.367Z,99656.78
2022-11-24T11:39:03.806Z,99665.34
2022-11-24T11:41:34.722Z,99654.56
2022-11-24T11:44:12.944Z,99661.84
2022-11-24T11:46:41.099Z,99660.41
2022-11-24T11:49:10.554Z,99668.53
2022-11-24T11:52:09.396Z,99669.75
2022-11-24T11:54:56.341Z,99674.22
2022-11-24T11:57:29.122Z,99670.44
2022-11-24T12:00:09.591Z,99674.09
2022-11-24T12:03:17.845Z,99667.16
2022-11-24T12:05:53.950Z,99673.84
2022-11-24T12:08:49.477Z,99677.69
2022-11-24T12:11:24.999Z,99678.19
2022-11-24T12:14:04.003Z,99676.38
2022-11-24T12:16:39.687Z,99674.97
2022-11-24T12:19:25.132Z,99678.03
2022-11-24T12:21:57.702Z,99670.28
2022-11-24T12:24:33.905Z,99678.63
2022-11-24T12:27:06.689Z,99686.38
2022-11-24T12:29:59.918Z,99685.63
2022-11-24T12:32:44.173Z,99685.44
2022-11-24T12:35:20.296Z,99684.69
2022-11-24T12:37:56.838Z,99683.72
2022-11-24T12:40:33.032Z,99679.50
2022-11-24T12:43:08.952Z,99684.88
2022-11-24T12:45:43.315Z,99685.06
2022-11-24T12:48:22.031Z,99688.53
2022-11-24T12:50:50.137Z,99686.06
2022-11-24T12:53:20.052Z,99688.72
2022-11-24T12:55:48.212Z,99689.47
2022-11-24T12:58:21.457Z,99691.13
2022-11-24T13:01:01.046Z,99692.88
2022-11-24T13:03:37.042Z,99701.59
2022-11-24T13:06:10.304Z,99692.22
2022-11-24T13:08:38.384Z,99701.66
2022-11-24T13:11:40.018Z,99700.84
2022-11-24T13:14:15.718Z,99686.38
2022-11-24T13:17:21.700Z,99696.31
2022-11-24T13:19:42.757Z,99694.47
2022-11-24T13:22:19.495Z,99695.22
2022-11-24T13:24:47.706Z,99695.41
2022-11-24T13:27:40.547Z,99698.31
2022-11-24T13:30:55.488Z,99702.72
2022-11-24T13:33:40.303Z,99706.97
2022-11-24T13:36:33.783Z,99717.50
2022-11-24T13:39:02.587Z,99715.41
2022-11-24T13:42:07.280Z,99704.63
2022-11-24T13:44:52.451Z,99717.81
2022-11-24T13:47:33.943Z,99721.41
2022-11-24T13:50:02.624Z,99715.41
2022-11-24T13:52:48.598Z,99706.72
2022-11-24T13:55:39.595Z,99705.63
2022-11-24T13:58:28.565Z,99708.41
2022-11-24T14:01:13.351Z,99701.81
2022-11-24T14:04:28.201Z,99698.50
2022-11-24T14:06:43.023Z,99694.13
2022-11-24T14:09:22.868Z,99695.78
2022-11-24T14:12:12.537Z,99696.44
2022-11-24T14:14:40.757Z,99701.19
2022-11-24T14:17:18.914Z,99706.13
2022-11-24T14:19:49.508Z,99702.63
2022-11-24T14:22:19.798Z,99682.03
2022-11-24T14:24:52.962Z,99686.53
2022-11-24T14:27:24.739Z,99681.09
2022-11-24T14:29:55.184Z,99667.69
2022-11-24T14:32:23.467Z,99682.25
2022-11-24T14:34:54.120Z,99678.19
2022-11-24T14:37:22.419Z,99692.81
2022-11-24T14:39:50.653Z,99691.44
2022-11-24T14:42:21.400Z,99697.44
2022-11-24T14:44:55.519Z,99702.16
2022-11-24T14:47:31.691Z,99710.31
2022-11-24T14:50:12.308Z,99711.78
2022-11-24T14:52:45.842Z,99715.69
2022-11-24T14:55:26.407Z,99711.22
2022-11-24T14:57:54.461Z,99717.66
2022-11-24T15:00:28.929Z,99718.78
2022-11-24T15:03:08.291Z,99728.28
2022-11-24T15:08:33.868Z,99734.69
2022-11-24T15:11:03.052Z,99728.97
2022-11-24T15:13:37.137Z,99721.94
2022-11-24T15:16:08.050Z,99732.28
2022-11-24T15:18:40.470Z,99734.13
2022-11-24T15:21:10.755Z,99749.84
2022-11-24T15:23:42.930Z,99751.88
2022-11-24T15:26:35.504Z,99752.69
2022-11-24T15:29:06.541Z,99764.47
2022-11-24T15:31:34.669Z,99748.97
2022-11-24T15:34:02.819Z,99751.50
2022-11-24T15:36:30.956Z,99749.59
2022-11-24T15:39:00.530Z,99746.06
2022-11-24T15:41:30.458Z,99750.00
2022-11-24T15:43:59.825Z,99745.66
2022-11-24T15:46:28.246Z,99753.16
2022-11-24T15:48:57.128Z,99752.28
2022-11-24T15:51:25.854Z,99760.84
2022-11-24T15:54:00.304Z,99763.47
2022-11-24T15:56:33.164Z,99768.06
2022-11-24T15:59:01.380Z,99777.00
2022-11-24T16:01:31.968Z,99783.13
2022-11-24T16:04:00.264Z,99780.44
2022-11-24T16:06:28.373Z,99780.19
2022-11-24T16:08:57.621Z,99777.34
2022-11-24T16:11:25.757Z,99772.78
2022-11-24T16:13:55.297Z,99779.25
2022-11-24T16:16:24.614Z,99782.25
2022-11-24T16:18:52.910Z,99796.44
2022-11-24T16:21:21.041Z,99797.78
2022-11-24T16:23:49.128Z,99805.19
2022-11-24T16:26:17.260Z,99809.25
2022-11-24T16:28:45.719Z,99811.59
2022-11-24T16:31:16.344Z,99812.00
2022-11-24T16:33:46.177Z,99807.25
2022-11-24T16:36:14.338Z,99804.00
2022-11-24T16:38:42.469Z,99798.16
2022-11-24T16:41:10.672Z,99807.72
2022-11-24T16:43:39.108Z,99809.69
2022-11-24T16:46:19.151Z,99804.78
2022-11-24T16:48:48.210Z,99807.59
2022-11-24T16:51:16.586Z,99812.09
2022-11-24T16:53:44.712Z,99809.91
2022-11-24T16:56:13.287Z,99819.66
2022-11-24T16:58:42.003Z,99813.22
2022-11-24T17:01:11.748Z,99809.91
2022-11-24T17:03:41.575Z,99806.59
2022-11-24T17:06:11.285Z,99790.47
2022-11-24T17:08:40.487Z,99798.38
2022-11-24T17:11:08.930Z,99799.25
2022-11-24T17:13:37.067Z,99811.28
2022-11-24T17:16:06.053Z,99807.94
2022-11-24T17:18:34.653Z,99808.06
2022-11-24T17:21:09.479Z,99809.84
2022-11-24T17:23:38.368Z,99805.66
2022-11-24T17:26:07.715Z,99801.59
2022-11-24T17:28:36.048Z,99812.97
2022-11-24T17:31:07.833Z,99808.84
2022-11-24T17:33:35.983Z,99815.72
2022-11-24T17:36:06.874Z,99813.16
2022-11-24T17:38:35.983Z,99820.09
2022-11-24T17:41:05.038Z,99818.34
2022-11-24T17:43:33.253Z,99813.16
2022-11-24T17:46:02.559Z,99814.91
2022-11-24T17:48:31.062Z,99820.09
2022-11-24T17:51:03.182Z,99824.19
2022-11-24T17:53:32.656Z,99820.69
2022-11-24T17:56:01.350Z,99821.34
2022-11-24T17:58:29.569Z,99824.69
2022-11-24T18:00:58.190Z,99827.25
2022-11-24T18:03:28.616Z,99827.09
2022-11-24T18:05:56.856Z,99832.06
2022-11-24T18:08:25.023Z,99831.03
2022-11-24T18:10:54.509Z,99833.47
2022-11-24T18:13:54.403Z,99832.69
2022-11-24T18:16:12.566Z,99837.94
2022-11-24T18:18:42.090Z,99838.75
2022-11-24T18:21:14.513Z,99842.91
2022-11-24T18:23:44.082Z,99844.44
2022-11-24T18:26:14.968Z,99833.22
2022-11-24T18:28:43.439Z,99832.34
2022-11-24T18:31:12.907Z,99835.59
2022-11-24T18:33:42.047Z,99831.22
2022-11-24T18:36:13.001Z,99827.69
2022-11-24T18:38:41.122Z,99828.53
2022-11-24T18:41:09.641Z,99834.25
2022-11-24T18:43:39.128Z,99825.53
2022-11-24T18:46:08.141Z,99828.63
2022-11-24T18:48:36.462Z,99831.78
2022-11-24T18:51:04.821Z,99837.47
2022-11-24T18:53:32.969Z,99828.84
2022-11-24T18:56:01.989Z,99835.91
2022-11-24T18:58:31.018Z,99827.59
2022-11-24T19:01:08.679Z,99824.38
2022-11-24T19:03:38.197Z,99826.22
2022-11-24T19:06:07.423Z,99829.94
2022-11-24T19:08:35.487Z,99821.56
2022-11-24T19:11:03.567Z,99815.09
2022-11-24T19:13:31.716Z,99811.06
2022-11-24T19:16:00.273Z,99807.81
2022-11-24T19:18:30.068Z,99801.94
2022-11-24T19:20:58.347Z,99800.25
2022-11-24T19:23:26.441Z,99794.09
2022-11-24T19:25:54.756Z,99795.66
2022-11-24T19:28:22.828Z,99792.13
2022-11-24T19:30:50.891Z,99796.44
2022-11-24T19:33:21.404Z,99802.66
2022-11-24T19:36:00.152Z,99803.94
2022-11-24T19:38:30.118Z,99802.59
2022-11-24T19:41:03.946Z,99804.56
2022-11-24T19:43:32.070Z,99804.69
2022-11-24T19:46:03.207Z,99805.88
2022-11-24T19:48:33.163Z,99801.78
2022-11-24T19:51:03.339Z,99813.91
2022-11-24T19:53:31.577Z,99816.59
2022-11-24T19:56:04.923Z,99810.06
2022-11-24T19:58:33.363Z,99818.88
2022-11-24T20:01:08.014Z,99792.63
2022-11-24T20:03:36.254Z,99808.81
2022-11-24T20:06:06.284Z,99809.69
2022-11-24T20:08:35.718Z,99803.00
2022-11-24T20:11:04.946Z,99812.44
2022-11-24T20:13:33.198Z,99802.16
2022-11-24T20:16:04.733Z,99805.69
2022-11-24T20:18:36.347Z,99802.31
2022-11-24T20:21:09.624Z,99792.34
2022-11-24T20:23:37.768Z,99803.31
2022-11-24T20:26:06.523Z,99813.59
2022-11-24T20:28:34.771Z,99801.66
2022-11-24T20:31:03.269Z,99811.13
2022-11-24T20:33:31.609Z,99814.44
2022-11-24T20:36:04.574Z,99813.59
2022-11-24T20:38:34.621Z,99811.03
2022-11-24T20:41:09.063Z,99813.72
2022-11-24T20:43:37.808Z,99811.16
2022-11-24T20:46:06.487Z,99820.66
2022-11-24T20:48:34.863Z,99814.72
2022-11-24T20:51:06.777Z,99821.81
2022-11-24T20:53:36.269Z,99818.50
2022-11-24T20:56:06.321Z,99817.75
2022-11-24T20:58:35.127Z,99815.22
2022-11-24T21:01:07.079Z,99822.09
2022-11-24T21:03:54.872Z,99813.63
2022-11-24T21:06:43.272Z,99824.03
2022-11-24T21:09:32.972Z,99822.53
2022-11-24T21:12:21.407Z,99825.25
2022-11-24T21:15:10.924Z,99814.19
2022-11-24T21:17:59.293Z,99820.13
2022-11-24T21:20:47.819Z,99815.09
2022-11-24T21:23:36.236Z,99820.88
2022-11-24T21:26:26.059Z,99818.78
2022-11-24T21:29:15.090Z,99823.53
2022-11-24T21:32:03.538Z,99827.44
2022-11-24T21:34:52.392Z,99839.31
2022-11-24T21:37:40.744Z,99837.19
2022-11-24T21:40:29.162Z,99831.09
2022-11-24T21:43:19.197Z,99835.31
2022-11-24T21:46:08.989Z,99832.91
2022-11-24T21:48:57.395Z,99832.75
2022-11-24T21:51:45.785Z,99828.06
2022-11-24T21:54:34.494Z,99838.25
2022-11-24T21:57:23.470Z,99833.91
2022-11-24T22:00:15.659Z,99832.13
2022-11-24T22:03:03.990Z,99835.47
2022-11-24T22:05:55.298Z,99829.31
2022-11-24T22:08:43.677Z,99829.38
2022-11-24T22:11:32.091Z,99828.53
2022-11-24T22:14:20.449Z,99828.59
2022-11-24T22:17:10.171Z,99825.31
2022-11-24T22:19:58.529Z,99824.63
2022-11-24T22:22:46.973Z,99827.53
2022-11-24T22:25:35.482Z,99828.59
2022-11-24T22:28:23.901Z,99828.69
2022-11-24T22:31:13.671Z,99835.75
2022-11-24T22:34:03.509Z,99829.03
2022-11-24T22:36:51.886Z,99819.75
2022-11-24T22:39:40.236Z,99825.00
2022-11-24T22:42:28.634Z,99819.19
2022-11-24T22:45:17.123Z,99827.78
2022-11-24T22:48:05.879Z,99819.41
2022-11-24T22:50:55.627Z,99824.66
2022-11-24T22:53:47.707Z,99818.72
2022-11-24T22:56:36.035Z,99830.00
2022-11-24T22:59:24.428Z,99832.59
2022-11-24T23:02:12.811Z,99826.63
2022-11-24T23:05:01.233Z,99829.31
2022-11-24T23:07:50.999Z,99830.41
2022-11-24T23:10:39.425Z,99828.94
2022-11-24T23:13:27.807Z,99835.06
2022-11-24T23:16:17.775Z,99834.34
2022-11-24T23:19:06.267Z,99837.88
2022-11-24T23:21:54.621Z,99835.47
2022-11-24T23:24:44.309Z,99828.88
2022-11-24T23:27:32.680Z,99828.22
2022-11-24T23:30:21.166Z,99829.28
2022-11-24T23:33:09.568Z,99833.72
2022-11-24T23:36:01.033Z,99831.94
2022-11-24T23:38:49.487Z,99834.53
2022-11-24T23:41:39.222Z,99828.66
2022-11-24T23:44:28.464Z,99826.88
2022-11-24T23:47:16.813Z,99832.00
2022-11-24T23:50:08.497Z,99834.66
2022-11-24T23:52:56.829Z,99830.34
2022-11-24T23:55:45.196Z,99826.84
2022-11-24T23:58:34.938Z,99819.19
